Terminal Aerodrome Forecast
Issued by NWS Pocatello, ID

Home | Current Version | Previous Version | Text Only | Print | Product List | Glossary On
Versions: 1 2 3 4 5 6 7 8 9 10 11 12 13 14 15 16 17 18 19 20 21 22 23 24
000
FTUS45 KPIH 231930 AAA
TAFIDA
TAF AMD
KIDA 231930Z 2320/2418 19010KT 4SM -SN BR BKN008 OVC015
      TEMPO 2320/2322 1/2SM SN FG OVC006
     FM232200 20015KT 6SM -SN BR SCT008 BKN015 OVC025
     FM240100 20010KT 2SM -SN BR SCT008 OVC015
     FM240400 21010KT 4SM -SN BR SCT008 OVC015
     FM241100 21010KT 1SM -SN BR OVC008=

USA.gov is the U.S. government's official web portal to all federal, state and local government web resources and services.